sensor_id;sensor_type;location;lat;lon;timestamp;P1;durP1;ratioP1;P2;durP2;ratioP2
2502;SDS011;1262;50.918;6.922;2022-08-19T00:01:15;8.20;;;7.50;;
2502;SDS011;1262;50.918;6.922;2022-08-19T00:03:42;8.63;;;7.93;;
2502;SDS011;1262;50.918;6.922;2022-08-19T00:06:09;7.93;;;7.30;;
2502;SDS011;1262;50.918;6.922;2022-08-19T00:08:38;7.93;;;7.23;;
2502;SDS011;1262;50.918;6.922;2022-08-19T00:11:06;7.77;;;7.00;;
2502;SDS011;1262;50.918;6.922;2022-08-19T00:13:33;7.83;;;7.03;;
2502;SDS011;1262;50.918;6.922;2022-08-19T00:16:01;8.53;;;6.97;;
2502;SDS011;1262;50.918;6.922;2022-08-19T00:18:28;8.43;;;7.57;;
2502;SDS011;1262;50.918;6.922;2022-08-19T00:20:55;8.60;;;7.43;;
2502;SDS011;1262;50.918;6.922;2022-08-19T00:23:24;8.63;;;7.80;;
2502;SDS011;1262;50.918;6.922;2022-08-19T00:25:53;8.07;;;7.27;;
2502;SDS011;1262;50.918;6.922;2022-08-19T00:28:20;8.47;;;7.77;;
2502;SDS011;1262;50.918;6.922;2022-08-19T00:30:48;8.97;;;8.17;;
2502;SDS011;1262;50.918;6.922;2022-08-19T00:33:16;8.97;;;7.80;;
2502;SDS011;1262;50.918;6.922;2022-08-19T00:35:44;8.43;;;7.63;;
2502;SDS011;1262;50.918;6.922;2022-08-19T00:38:11;8.03;;;7.20;;
2502;SDS011;1262;50.918;6.922;2022-08-19T00:40:38;9.40;;;8.50;;
2502;SDS011;1262;50.918;6.922;2022-08-19T00:43:09;9.70;;;8.73;;
2502;SDS011;1262;50.918;6.922;2022-08-19T00:45:39;8.50;;;7.70;;
2502;SDS011;1262;50.918;6.922;2022-08-19T00:48:08;9.60;;;7.90;;
2502;SDS011;1262;50.918;6.922;2022-08-19T00:50:36;10.43;;;8.63;;
2502;SDS011;1262;50.918;6.922;2022-08-19T00:53:05;9.90;;;8.20;;
2502;SDS011;1262;50.918;6.922;2022-08-19T00:55:33;9.30;;;8.40;;
2502;SDS011;1262;50.918;6.922;2022-08-19T00:58:02;10.17;;;9.07;;
2502;SDS011;1262;50.918;6.922;2022-08-19T01:00:33;9.63;;;8.63;;
2502;SDS011;1262;50.918;6.922;2022-08-19T01:03:02;10.73;;;9.73;;
2502;SDS011;1262;50.918;6.922;2022-08-19T01:05:29;9.90;;;9.00;;
2502;SDS011;1262;50.918;6.922;2022-08-19T01:07:57;10.23;;;9.20;;
2502;SDS011;1262;50.918;6.922;2022-08-19T01:10:27;15.50;;;9.83;;
2502;SDS011;1262;50.918;6.922;2022-08-19T01:12:54;13.60;;;9.60;;
2502;SDS011;1262;50.918;6.922;2022-08-19T01:15:23;16.33;;;10.50;;
2502;SDS011;1262;50.918;6.922;2022-08-19T01:17:54;11.67;;;9.20;;
2502;SDS011;1262;50.918;6.922;2022-08-19T01:20:22;10.10;;;8.93;;
2502;SDS011;1262;50.918;6.922;2022-08-19T01:22:51;12.30;;;11.00;;
2502;SDS011;1262;50.918;6.922;2022-08-19T01:25:20;11.03;;;9.80;;
2502;SDS011;1262;50.918;6.922;2022-08-19T01:27:49;12.63;;;10.10;;
2502;SDS011;1262;50.918;6.922;2022-08-19T01:30:18;13.67;;;9.30;;
2502;SDS011;1262;50.918;6.922;2022-08-19T01:32:46;12.10;;;9.23;;
2502;SDS011;1262;50.918;6.922;2022-08-19T01:35:14;11.30;;;10.10;;
2502;SDS011;1262;50.918;6.922;2022-08-19T01:37:44;15.23;;;10.67;;
2502;SDS011;1262;50.918;6.922;2022-08-19T01:40:14;18.20;;;10.53;;
2502;SDS011;1262;50.918;6.922;2022-08-19T01:42:41;14.30;;;11.40;;
2502;SDS011;1262;50.918;6.922;2022-08-19T01:45:09;13.60;;;10.27;;
2502;SDS011;1262;50.918;6.922;2022-08-19T01:47:36;11.90;;;9.90;;
2502;SDS011;1262;50.918;6.922;2022-08-19T01:50:04;12.77;;;10.20;;
2502;SDS011;1262;50.918;6.922;2022-08-19T01:52:32;13.87;;;11.20;;
2502;SDS011;1262;50.918;6.922;2022-08-19T01:55:01;11.33;;;10.20;;
2502;SDS011;1262;50.918;6.922;2022-08-19T01:57:30;13.30;;;10.07;;
2502;SDS011;1262;50.918;6.922;2022-08-19T01:59:57;13.80;;;11.37;;
2502;SDS011;1262;50.918;6.922;2022-08-19T02:02:24;11.03;;;9.97;;
2502;SDS011;1262;50.918;6.922;2022-08-19T02:04:51;11.13;;;9.17;;
2502;SDS011;1262;50.918;6.922;2022-08-19T02:07:19;11.37;;;9.93;;
2502;SDS011;1262;50.918;6.922;2022-08-19T02:09:46;12.17;;;10.93;;
2502;SDS011;1262;50.918;6.922;2022-08-19T02:12:14;10.93;;;9.77;;
2502;SDS011;1262;50.918;6.922;2022-08-19T02:14:42;14.60;;;10.40;;
2502;SDS011;1262;50.918;6.922;2022-08-19T02:17:10;10.87;;;9.67;;
2502;SDS011;1262;50.918;6.922;2022-08-19T02:19:37;14.30;;;11.07;;
2502;SDS011;1262;50.918;6.922;2022-08-19T02:22:04;14.90;;;12.80;;
2502;SDS011;1262;50.918;6.922;2022-08-19T02:24:31;13.20;;;11.30;;
2502;SDS011;1262;50.918;6.922;2022-08-19T02:26:59;11.90;;;10.70;;
2502;SDS011;1262;50.918;6.922;2022-08-19T02:29:26;12.00;;;10.90;;
2502;SDS011;1262;50.918;6.922;2022-08-19T02:31:54;13.87;;;11.50;;
2502;SDS011;1262;50.918;6.922;2022-08-19T02:34:22;16.70;;;11.37;;
2502;SDS011;1262;50.918;6.922;2022-08-19T02:36:50;12.57;;;11.33;;
2502;SDS011;1262;50.918;6.922;2022-08-19T02:39:17;15.63;;;12.20;;
2502;SDS011;1262;50.918;6.922;2022-08-19T02:41:43;15.97;;;11.17;;
2502;SDS011;1262;50.918;6.922;2022-08-19T02:44:10;12.60;;;10.60;;
2502;SDS011;1262;50.918;6.922;2022-08-19T02:46:38;16.53;;;11.30;;
2502;SDS011;1262;50.918;6.922;2022-08-19T02:49:07;12.87;;;11.57;;
2502;SDS011;1262;50.918;6.922;2022-08-19T02:51:35;13.50;;;12.20;;
2502;SDS011;1262;50.918;6.922;2022-08-19T02:54:04;18.20;;;12.20;;
2502;SDS011;1262;50.918;6.922;2022-08-19T02:56:31;14.53;;;11.33;;
2502;SDS011;1262;50.918;6.922;2022-08-19T02:59:01;12.43;;;11.10;;
2502;SDS011;1262;50.918;6.922;2022-08-19T03:01:31;13.53;;;12.17;;
2502;SDS011;1262;50.918;6.922;2022-08-19T03:04:00;13.43;;;12.03;;
2502;SDS011;1262;50.918;6.922;2022-08-19T03:06:29;15.10;;;13.60;;
2502;SDS011;1262;50.918;6.922;2022-08-19T03:08:56;14.63;;;12.67;;
2502;SDS011;1262;50.918;6.922;2022-08-19T03:11:24;16.00;;;12.80;;
2502;SDS011;1262;50.918;6.922;2022-08-19T03:13:52;12.83;;;11.40;;
2502;SDS011;1262;50.918;6.922;2022-08-19T03:16:20;14.07;;;12.67;;
2502;SDS011;1262;50.918;6.922;2022-08-19T03:18:48;15.87;;;13.80;;
2502;SDS011;1262;50.918;6.922;2022-08-19T03:21:15;13.57;;;12.17;;
2502;SDS011;1262;50.918;6.922;2022-08-19T03:23:44;15.83;;;12.83;;
2502;SDS011;1262;50.918;6.922;2022-08-19T03:26:11;13.90;;;12.00;;
2502;SDS011;1262;50.918;6.922;2022-08-19T03:28:40;18.33;;;12.80;;
2502;SDS011;1262;50.918;6.922;2022-08-19T03:31:11;14.80;;;12.80;;
2502;SDS011;1262;50.918;6.922;2022-08-19T03:33:39;15.40;;;13.33;;
2502;SDS011;1262;50.918;6.922;2022-08-19T03:36:07;18.20;;;12.60;;
2502;SDS011;1262;50.918;6.922;2022-08-19T03:38:35;12.80;;;11.57;;
2502;SDS011;1262;50.918;6.922;2022-08-19T03:41:05;15.47;;;13.87;;
2502;SDS011;1262;50.918;6.922;2022-08-19T03:43:33;12.50;;;11.33;;
2502;SDS011;1262;50.918;6.922;2022-08-19T03:46:01;14.37;;;12.83;;
2502;SDS011;1262;50.918;6.922;2022-08-19T03:48:29;13.70;;;12.27;;
2502;SDS011;1262;50.918;6.922;2022-08-19T03:50:56;13.70;;;12.40;;
2502;SDS011;1262;50.918;6.922;2022-08-19T03:53:24;15.43;;;12.20;;
2502;SDS011;1262;50.918;6.922;2022-08-19T03:55:52;15.03;;;12.27;;
2502;SDS011;1262;50.918;6.922;2022-08-19T03:58:21;14.60;;;13.07;;
2502;SDS011;1262;50.918;6.922;2022-08-19T04:00:48;14.57;;;13.07;;
2502;SDS011;1262;50.918;6.922;2022-08-19T04:03:16;13.20;;;12.00;;
2502;SDS011;1262;50.918;6.922;2022-08-19T04:05:44;15.97;;;12.50;;
2502;SDS011;1262;50.918;6.922;2022-08-19T04:08:12;14.40;;;12.40;;
2502;SDS011;1262;50.918;6.922;2022-08-19T04:10:40;13.80;;;12.13;;
2502;SDS011;1262;50.918;6.922;2022-08-19T04:13:07;14.80;;;13.40;;
2502;SDS011;1262;50.918;6.922;2022-08-19T04:15:39;14.93;;;13.17;;
2502;SDS011;1262;50.918;6.922;2022-08-19T04:18:07;14.20;;;12.77;;
2502;SDS011;1262;50.918;6.922;2022-08-19T04:20:38;16.27;;;14.43;;
2502;SDS011;1262;50.918;6.922;2022-08-19T04:23:06;15.30;;;13.30;;
2502;SDS011;1262;50.918;6.922;2022-08-19T04:25:35;14.13;;;12.63;;
2502;SDS011;1262;50.918;6.922;2022-08-19T04:28:02;14.07;;;12.60;;
2502;SDS011;1262;50.918;6.922;2022-08-19T04:30:29;15.67;;;14.07;;
2502;SDS011;1262;50.918;6.922;2022-08-19T04:32:58;15.67;;;14.23;;
2502;SDS011;1262;50.918;6.922;2022-08-19T04:35:25;15.23;;;13.83;;
2502;SDS011;1262;50.918;6.922;2022-08-19T04:37:52;15.57;;;13.87;;
2502;SDS011;1262;50.918;6.922;2022-08-19T04:40:20;17.30;;;14.53;;
2502;SDS011;1262;50.918;6.922;2022-08-19T04:43:01;16.87;;;15.17;;
2502;SDS011;1262;50.918;6.922;2022-08-19T04:45:28;22.50;;;15.23;;
2502;SDS011;1262;50.918;6.922;2022-08-19T04:47:55;16.27;;;14.77;;
2502;SDS011;1262;50.918;6.922;2022-08-19T04:50:24;16.70;;;15.00;;
2502;SDS011;1262;50.918;6.922;2022-08-19T04:52:51;18.50;;;16.70;;
2502;SDS011;1262;50.918;6.922;2022-08-19T04:55:21;17.13;;;15.37;;
2502;SDS011;1262;50.918;6.922;2022-08-19T04:57:50;18.60;;;16.70;;
2502;SDS011;1262;50.918;6.922;2022-08-19T05:00:17;17.40;;;15.77;;
2502;SDS011;1262;50.918;6.922;2022-08-19T05:02:44;19.00;;;17.27;;
2502;SDS011;1262;50.918;6.922;2022-08-19T05:05:12;18.20;;;16.50;;
2502;SDS011;1262;50.918;6.922;2022-08-19T05:07:40;18.63;;;16.67;;
2502;SDS011;1262;50.918;6.922;2022-08-19T05:10:10;18.20;;;16.50;;
2502;SDS011;1262;50.918;6.922;2022-08-19T05:12:38;18.90;;;17.03;;
2502;SDS011;1262;50.918;6.922;2022-08-19T05:15:05;19.10;;;17.30;;
2502;SDS011;1262;50.918;6.922;2022-08-19T05:17:34;20.00;;;18.00;;
2502;SDS011;1262;50.918;6.922;2022-08-19T05:20:01;21.47;;;19.20;;
2502;SDS011;1262;50.918;6.922;2022-08-19T05:22:44;21.37;;;19.20;;
2502;SDS011;1262;50.918;6.922;2022-08-19T05:25:13;22.77;;;20.57;;
2502;SDS011;1262;50.918;6.922;2022-08-19T05:27:44;20.53;;;18.50;;
2502;SDS011;1262;50.918;6.922;2022-08-19T05:30:11;22.50;;;20.30;;
2502;SDS011;1262;50.918;6.922;2022-08-19T05:32:39;22.50;;;20.30;;
2502;SDS011;1262;50.918;6.922;2022-08-19T05:35:06;22.10;;;19.90;;
2502;SDS011;1262;50.918;6.922;2022-08-19T05:37:34;22.17;;;20.07;;
2502;SDS011;1262;50.918;6.922;2022-08-19T05:40:03;22.80;;;20.50;;
2502;SDS011;1262;50.918;6.922;2022-08-19T05:42:31;23.83;;;21.47;;
2502;SDS011;1262;50.918;6.922;2022-08-19T05:44:58;23.50;;;21.40;;
2502;SDS011;1262;50.918;6.922;2022-08-19T05:47:25;26.40;;;23.90;;
2502;SDS011;1262;50.918;6.922;2022-08-19T05:49:53;22.47;;;20.13;;
2502;SDS011;1262;50.918;6.922;2022-08-19T05:52:20;23.27;;;20.83;;
2502;SDS011;1262;50.918;6.922;2022-08-19T05:54:47;23.20;;;20.83;;
2502;SDS011;1262;50.918;6.922;2022-08-19T05:57:17;25.53;;;22.90;;
2502;SDS011;1262;50.918;6.922;2022-08-19T05:59:44;24.97;;;22.43;;
2502;SDS011;1262;50.918;6.922;2022-08-19T06:02:16;23.40;;;20.97;;
2502;SDS011;1262;50.918;6.922;2022-08-19T06:04:43;24.00;;;21.60;;
2502;SDS011;1262;50.918;6.922;2022-08-19T06:07:10;22.43;;;20.33;;
2502;SDS011;1262;50.918;6.922;2022-08-19T06:09:38;23.60;;;21.10;;
2502;SDS011;1262;50.918;6.922;2022-08-19T06:12:05;23.30;;;21.00;;
2502;SDS011;1262;50.918;6.922;2022-08-19T06:14:34;21.47;;;19.53;;
2502;SDS011;1262;50.918;6.922;2022-08-19T06:17:02;23.33;;;21.07;;
2502;SDS011;1262;50.918;6.922;2022-08-19T06:19:30;22.20;;;20.00;;
2502;SDS011;1262;50.918;6.922;2022-08-19T06:21:57;26.33;;;23.27;;
2502;SDS011;1262;50.918;6.922;2022-08-19T06:24:26;24.87;;;22.27;;
2502;SDS011;1262;50.918;6.922;2022-08-19T06:26:54;23.47;;;21.10;;
2502;SDS011;1262;50.918;6.922;2022-08-19T06:29:23;25.00;;;22.40;;
2502;SDS011;1262;50.918;6.922;2022-08-19T06:31:53;26.20;;;23.50;;
2502;SDS011;1262;50.918;6.922;2022-08-19T06:34:21;25.60;;;22.90;;
2502;SDS011;1262;50.918;6.922;2022-08-19T06:36:49;24.90;;;22.50;;
2502;SDS011;1262;50.918;6.922;2022-08-19T06:39:17;24.97;;;22.57;;
2502;SDS011;1262;50.918;6.922;2022-08-19T06:41:46;26.00;;;23.30;;
2502;SDS011;1262;50.918;6.922;2022-08-19T06:44:13;27.00;;;24.20;;
2502;SDS011;1262;50.918;6.922;2022-08-19T06:46:41;27.23;;;23.60;;
2502;SDS011;1262;50.918;6.922;2022-08-19T06:49:10;25.77;;;23.07;;
2502;SDS011;1262;50.918;6.922;2022-08-19T06:51:39;26.20;;;22.90;;
2502;SDS011;1262;50.918;6.922;2022-08-19T06:54:07;25.50;;;22.80;;
2502;SDS011;1262;50.918;6.922;2022-08-19T06:56:34;27.80;;;24.80;;
2502;SDS011;1262;50.918;6.922;2022-08-19T06:59:02;25.83;;;20.30;;
2502;SDS011;1262;50.918;6.922;2022-08-19T07:01:30;25.33;;;22.73;;
2502;SDS011;1262;50.918;6.922;2022-08-19T07:04:02;27.90;;;25.10;;
2502;SDS011;1262;50.918;6.922;2022-08-19T07:06:33;23.60;;;21.13;;
2502;SDS011;1262;50.918;6.922;2022-08-19T07:09:00;28.77;;;24.07;;
2502;SDS011;1262;50.918;6.922;2022-08-19T07:11:27;25.00;;;22.30;;
2502;SDS011;1262;50.918;6.922;2022-08-19T07:13:55;23.17;;;20.83;;
2502;SDS011;1262;50.918;6.922;2022-08-19T07:16:23;23.67;;;21.20;;
2502;SDS011;1262;50.918;6.922;2022-08-19T07:18:50;28.53;;;25.50;;
2502;SDS011;1262;50.918;6.922;2022-08-19T07:21:19;29.40;;;24.67;;
2502;SDS011;1262;50.918;6.922;2022-08-19T07:23:48;27.10;;;23.50;;
2502;SDS011;1262;50.918;6.922;2022-08-19T07:26:16;25.20;;;22.70;;
2502;SDS011;1262;50.918;6.922;2022-08-19T07:28:44;24.37;;;21.50;;
2502;SDS011;1262;50.918;6.922;2022-08-19T07:31:11;24.10;;;21.60;;
2502;SDS011;1262;50.918;6.922;2022-08-19T07:33:39;24.20;;;21.73;;
2502;SDS011;1262;50.918;6.922;2022-08-19T07:36:08;23.17;;;20.70;;
2502;SDS011;1262;50.918;6.922;2022-08-19T07:38:37;35.03;;;23.87;;
2502;SDS011;1262;50.918;6.922;2022-08-19T07:41:07;26.97;;;24.17;;
2502;SDS011;1262;50.918;6.922;2022-08-19T07:43:35;28.70;;;25.40;;
2502;SDS011;1262;50.918;6.922;2022-08-19T07:46:02;28.43;;;23.93;;
2502;SDS011;1262;50.918;6.922;2022-08-19T07:48:30;23.77;;;21.33;;
2502;SDS011;1262;50.918;6.922;2022-08-19T07:50:59;29.47;;;25.70;;
2502;SDS011;1262;50.918;6.922;2022-08-19T07:53:28;28.20;;;25.33;;
2502;SDS011;1262;50.918;6.922;2022-08-19T07:55:56;28.80;;;25.80;;
2502;SDS011;1262;50.918;6.922;2022-08-19T07:58:30;27.73;;;24.23;;
2502;SDS011;1262;50.918;6.922;2022-08-19T08:00:57;28.03;;;25.07;;
2502;SDS011;1262;50.918;6.922;2022-08-19T08:03:25;28.97;;;25.47;;
2502;SDS011;1262;50.918;6.922;2022-08-19T08:06:06;26.33;;;23.33;;
2502;SDS011;1262;50.918;6.922;2022-08-19T08:08:48;26.93;;;23.80;;
2502;SDS011;1262;50.918;6.922;2022-08-19T08:11:29;30.40;;;24.70;;
2502;SDS011;1262;50.918;6.922;2022-08-19T08:14:03;27.27;;;21.97;;
2502;SDS011;1262;50.918;6.922;2022-08-19T08:16:35;31.73;;;25.97;;
2502;SDS011;1262;50.918;6.922;2022-08-19T08:19:03;31.73;;;27.63;;
2502;SDS011;1262;50.918;6.922;2022-08-19T08:21:30;31.23;;;26.87;;
2502;SDS011;1262;50.918;6.922;2022-08-19T08:23:58;35.07;;;29.27;;
2502;SDS011;1262;50.918;6.922;2022-08-19T08:26:25;33.60;;;26.47;;
2502;SDS011;1262;50.918;6.922;2022-08-19T08:28:53;28.03;;;24.80;;
2502;SDS011;1262;50.918;6.922;2022-08-19T08:31:23;28.80;;;24.47;;
2502;SDS011;1262;50.918;6.922;2022-08-19T08:33:50;28.17;;;24.40;;
2502;SDS011;1262;50.918;6.922;2022-08-19T08:36:20;30.40;;;25.43;;
2502;SDS011;1262;50.918;6.922;2022-08-19T08:38:49;35.20;;;28.30;;
2502;SDS011;1262;50.918;6.922;2022-08-19T08:41:21;31.57;;;25.63;;
2502;SDS011;1262;50.918;6.922;2022-08-19T08:43:52;28.73;;;25.13;;
2502;SDS011;1262;50.918;6.922;2022-08-19T08:46:22;31.37;;;27.27;;
2502;SDS011;1262;50.918;6.922;2022-08-19T08:49:01;31.80;;;25.47;;
2502;SDS011;1262;50.918;6.922;2022-08-19T08:51:34;27.37;;;24.47;;
2502;SDS011;1262;50.918;6.922;2022-08-19T08:54:02;31.63;;;27.73;;
2502;SDS011;1262;50.918;6.922;2022-08-19T08:56:29;29.63;;;24.67;;
2502;SDS011;1262;50.918;6.922;2022-08-19T08:59:01;36.33;;;29.10;;
2502;SDS011;1262;50.918;6.922;2022-08-19T09:01:33;34.87;;;28.40;;
2502;SDS011;1262;50.918;6.922;2022-08-19T09:04:03;30.90;;;27.40;;
2502;SDS011;1262;50.918;6.922;2022-08-19T09:06:34;39.57;;;31.30;;
2502;SDS011;1262;50.918;6.922;2022-08-19T09:09:04;33.83;;;27.70;;
2502;SDS011;1262;50.918;6.922;2022-08-19T09:11:37;30.30;;;27.00;;
2502;SDS011;1262;50.918;6.922;2022-08-19T09:14:10;28.23;;;24.80;;
2502;SDS011;1262;50.918;6.922;2022-08-19T09:16:39;29.93;;;26.67;;
2502;SDS011;1262;50.918;6.922;2022-08-19T09:19:07;28.70;;;24.90;;
2502;SDS011;1262;50.918;6.922;2022-08-19T09:21:35;32.57;;;26.30;;
2502;SDS011;1262;50.918;6.922;2022-08-19T09:24:03;31.33;;;27.90;;
2502;SDS011;1262;50.918;6.922;2022-08-19T09:26:31;26.43;;;22.83;;
2502;SDS011;1262;50.918;6.922;2022-08-19T09:28:59;18.40;;;15.90;;
2502;SDS011;1262;50.918;6.922;2022-08-19T09:31:28;16.80;;;15.00;;
2502;SDS011;1262;50.918;6.922;2022-08-19T09:33:57;21.03;;;17.97;;
2502;SDS011;1262;50.918;6.922;2022-08-19T09:36:27;20.47;;;18.40;;
2502;SDS011;1262;50.918;6.922;2022-08-19T09:38:57;20.13;;;17.77;;
2502;SDS011;1262;50.918;6.922;2022-08-19T09:41:27;23.13;;;20.53;;
2502;SDS011;1262;50.918;6.922;2022-08-19T09:43:55;21.50;;;19.30;;
2502;SDS011;1262;50.918;6.922;2022-08-19T09:46:23;19.93;;;17.70;;
2502;SDS011;1262;50.918;6.922;2022-08-19T09:48:51;19.27;;;16.70;;
2502;SDS011;1262;50.918;6.922;2022-08-19T09:51:19;18.80;;;16.90;;
2502;SDS011;1262;50.918;6.922;2022-08-19T09:53:49;16.33;;;14.53;;
2502;SDS011;1262;50.918;6.922;2022-08-19T09:56:19;18.43;;;15.80;;
2502;SDS011;1262;50.918;6.922;2022-08-19T09:58:47;17.50;;;14.80;;
2502;SDS011;1262;50.918;6.922;2022-08-19T10:01:22;15.10;;;13.07;;
2502;SDS011;1262;50.918;6.922;2022-08-19T10:03:50;16.20;;;14.60;;
2502;SDS011;1262;50.918;6.922;2022-08-19T10:06:18;17.27;;;15.47;;
2502;SDS011;1262;50.918;6.922;2022-08-19T10:08:46;14.23;;;12.00;;
2502;SDS011;1262;50.918;6.922;2022-08-19T10:11:15;16.07;;;14.47;;
2502;SDS011;1262;50.918;6.922;2022-08-19T10:13:42;12.80;;;11.50;;
2502;SDS011;1262;50.918;6.922;2022-08-19T10:16:11;11.20;;;10.10;;
2502;SDS011;1262;50.918;6.922;2022-08-19T10:18:39;10.33;;;9.20;;
2502;SDS011;1262;50.918;6.922;2022-08-19T10:21:08;15.63;;;14.23;;
2502;SDS011;1262;50.918;6.922;2022-08-19T10:23:36;15.57;;;12.87;;
2502;SDS011;1262;50.918;6.922;2022-08-19T10:26:04;13.50;;;11.53;;
2502;SDS011;1262;50.918;6.922;2022-08-19T10:28:33;12.93;;;11.73;;
2502;SDS011;1262;50.918;6.922;2022-08-19T10:31:03;11.10;;;10.07;;
2502;SDS011;1262;50.918;6.922;2022-08-19T10:33:31;13.10;;;10.67;;
2502;SDS011;1262;50.918;6.922;2022-08-19T10:35:59;10.17;;;9.27;;
2502;SDS011;1262;50.918;6.922;2022-08-19T10:38:26;15.00;;;10.90;;
2502;SDS011;1262;50.918;6.922;2022-08-19T10:40:54;10.93;;;9.93;;
2502;SDS011;1262;50.918;6.922;2022-08-19T10:43:22;13.07;;;11.43;;
2502;SDS011;1262;50.918;6.922;2022-08-19T10:45:53;11.33;;;10.33;;
2502;SDS011;1262;50.918;6.922;2022-08-19T10:48:22;12.40;;;11.30;;
2502;SDS011;1262;50.918;6.922;2022-08-19T10:50:49;12.77;;;9.73;;
2502;SDS011;1262;50.918;6.922;2022-08-19T10:53:33;11.73;;;10.63;;
2502;SDS011;1262;50.918;6.922;2022-08-19T10:56:00;11.30;;;10.30;;
2502;SDS011;1262;50.918;6.922;2022-08-19T10:58:41;12.60;;;11.50;;
2502;SDS011;1262;50.918;6.922;2022-08-19T11:01:14;12.73;;;11.50;;
2502;SDS011;1262;50.918;6.922;2022-08-19T11:03:41;12.57;;;11.40;;
2502;SDS011;1262;50.918;6.922;2022-08-19T11:06:10;13.53;;;12.23;;
2502;SDS011;1262;50.918;6.922;2022-08-19T11:08:38;15.67;;;13.40;;
2502;SDS011;1262;50.918;6.922;2022-08-19T11:11:08;14.33;;;12.80;;
2502;SDS011;1262;50.918;6.922;2022-08-19T11:13:36;15.97;;;14.37;;
2502;SDS011;1262;50.918;6.922;2022-08-19T11:16:06;13.40;;;12.20;;
2502;SDS011;1262;50.918;6.922;2022-08-19T11:18:37;12.40;;;11.30;;
2502;SDS011;1262;50.918;6.922;2022-08-19T11:21:06;10.80;;;9.83;;
2502;SDS011;1262;50.918;6.922;2022-08-19T11:23:37;12.60;;;11.30;;
2502;SDS011;1262;50.918;6.922;2022-08-19T11:26:04;12.13;;;11.03;;
2502;SDS011;1262;50.918;6.922;2022-08-19T11:28:34;13.90;;;11.50;;
2502;SDS011;1262;50.918;6.922;2022-08-19T11:31:02;10.10;;;9.20;;
2502;SDS011;1262;50.918;6.922;2022-08-19T11:33:29;9.73;;;8.83;;
2502;SDS011;1262;50.918;6.922;2022-08-19T11:36:01;11.60;;;10.60;;
2502;SDS011;1262;50.918;6.922;2022-08-19T11:38:35;10.10;;;9.10;;
2502;SDS011;1262;50.918;6.922;2022-08-19T11:41:19;10.60;;;9.60;;
2502;SDS011;1262;50.918;6.922;2022-08-19T11:43:48;10.80;;;9.60;;
2502;SDS011;1262;50.918;6.922;2022-08-19T11:46:25;13.23;;;12.00;;
2502;SDS011;1262;50.918;6.922;2022-08-19T11:48:54;27.43;;;23.00;;
2502;SDS011;1262;50.918;6.922;2022-08-19T11:51:25;20.50;;;17.87;;
2502;SDS011;1262;50.918;6.922;2022-08-19T11:53:53;31.40;;;24.60;;
2502;SDS011;1262;50.918;6.922;2022-08-19T11:56:20;28.10;;;24.17;;
2502;SDS011;1262;50.918;6.922;2022-08-19T11:58:48;19.73;;;17.23;;
2502;SDS011;1262;50.918;6.922;2022-08-19T12:01:17;17.73;;;15.43;;
2502;SDS011;1262;50.918;6.922;2022-08-19T12:03:44;13.27;;;12.07;;
2502;SDS011;1262;50.918;6.922;2022-08-19T12:06:13;15.40;;;12.63;;
2502;SDS011;1262;50.918;6.922;2022-08-19T12:08:42;13.73;;;10.90;;
2502;SDS011;1262;50.918;6.922;2022-08-19T12:11:10;11.30;;;10.20;;
2502;SDS011;1262;50.918;6.922;2022-08-19T12:13:41;10.40;;;9.53;;
2502;SDS011;1262;50.918;6.922;2022-08-19T12:16:17;10.80;;;9.80;;
2502;SDS011;1262;50.918;6.922;2022-08-19T12:18:45;10.40;;;9.23;;
2502;SDS011;1262;50.918;6.922;2022-08-19T12:21:13;11.57;;;9.90;;
2502;SDS011;1262;50.918;6.922;2022-08-19T12:23:46;11.07;;;9.00;;
2502;SDS011;1262;50.918;6.922;2022-08-19T12:26:14;10.60;;;9.30;;
2502;SDS011;1262;50.918;6.922;2022-08-19T12:28:42;9.67;;;8.67;;
2502;SDS011;1262;50.918;6.922;2022-08-19T12:31:10;8.60;;;7.80;;
2502;SDS011;1262;50.918;6.922;2022-08-19T12:33:41;8.50;;;7.83;;
2502;SDS011;1262;50.918;6.922;2022-08-19T12:36:10;8.40;;;7.60;;
2502;SDS011;1262;50.918;6.922;2022-08-19T12:38:39;8.50;;;7.67;;
2502;SDS011;1262;50.918;6.922;2022-08-19T12:41:10;10.70;;;9.70;;
2502;SDS011;1262;50.918;6.922;2022-08-19T12:43:42;9.40;;;8.60;;
2502;SDS011;1262;50.918;6.922;2022-08-19T12:46:13;10.00;;;9.10;;
2502;SDS011;1262;50.918;6.922;2022-08-19T12:48:45;11.07;;;9.17;;
2502;SDS011;1262;50.918;6.922;2022-08-19T12:51:18;9.83;;;8.90;;
2502;SDS011;1262;50.918;6.922;2022-08-19T12:53:46;9.73;;;8.70;;
2502;SDS011;1262;50.918;6.922;2022-08-19T12:56:16;10.43;;;9.33;;
2502;SDS011;1262;50.918;6.922;2022-08-19T12:58:44;10.33;;;7.97;;
2502;SDS011;1262;50.918;6.922;2022-08-19T13:01:15;9.97;;;9.07;;
2502;SDS011;1262;50.918;6.922;2022-08-19T13:03:44;9.50;;;8.60;;
2502;SDS011;1262;50.918;6.922;2022-08-19T13:06:14;10.40;;;9.20;;
2502;SDS011;1262;50.918;6.922;2022-08-19T13:08:44;9.03;;;8.23;;
2502;SDS011;1262;50.918;6.922;2022-08-19T13:11:16;9.60;;;8.80;;
2502;SDS011;1262;50.918;6.922;2022-08-19T13:13:49;9.57;;;8.67;;
2502;SDS011;1262;50.918;6.922;2022-08-19T13:16:18;9.13;;;8.10;;
2502;SDS011;1262;50.918;6.922;2022-08-19T13:18:50;9.00;;;8.10;;
2502;SDS011;1262;50.918;6.922;2022-08-19T13:21:21;8.33;;;7.20;;
2502;SDS011;1262;50.918;6.922;2022-08-19T13:23:49;8.07;;;7.37;;
2502;SDS011;1262;50.918;6.922;2022-08-19T13:26:19;7.97;;;7.27;;
2502;SDS011;1262;50.918;6.922;2022-08-19T13:28:47;7.47;;;6.83;;
2502;SDS011;1262;50.918;6.922;2022-08-19T13:31:33;9.93;;;8.23;;
2502;SDS011;1262;50.918;6.922;2022-08-19T13:34:18;7.93;;;7.20;;
2502;SDS011;1262;50.918;6.922;2022-08-19T13:36:46;7.07;;;6.47;;
2502;SDS011;1262;50.918;6.922;2022-08-19T13:39:16;8.93;;;7.87;;
2502;SDS011;1262;50.918;6.922;2022-08-19T13:41:45;9.73;;;7.63;;
2502;SDS011;1262;50.918;6.922;2022-08-19T13:44:15;8.70;;;7.40;;
2502;SDS011;1262;50.918;6.922;2022-08-19T13:46:44;9.50;;;7.43;;
2502;SDS011;1262;50.918;6.922;2022-08-19T13:49:11;7.97;;;7.17;;
2502;SDS011;1262;50.918;6.922;2022-08-19T13:51:45;10.73;;;7.33;;
2502;SDS011;1262;50.918;6.922;2022-08-19T13:54:15;8.23;;;7.40;;
2502;SDS011;1262;50.918;6.922;2022-08-19T13:56:43;8.43;;;7.70;;
2502;SDS011;1262;50.918;6.922;2022-08-19T13:59:12;9.00;;;7.97;;
2502;SDS011;1262;50.918;6.922;2022-08-19T14:01:46;8.27;;;7.27;;
2502;SDS011;1262;50.918;6.922;2022-08-19T14:04:18;8.53;;;7.67;;
2502;SDS011;1262;50.918;6.922;2022-08-19T14:06:45;9.27;;;6.87;;
2502;SDS011;1262;50.918;6.922;2022-08-19T14:09:13;7.33;;;6.63;;
2502;SDS011;1262;50.918;6.922;2022-08-19T14:11:40;8.27;;;6.87;;
2502;SDS011;1262;50.918;6.922;2022-08-19T14:14:12;7.40;;;6.63;;
2502;SDS011;1262;50.918;6.922;2022-08-19T14:16:47;8.80;;;7.77;;
2502;SDS011;1262;50.918;6.922;2022-08-19T14:19:19;8.97;;;7.47;;
2502;SDS011;1262;50.918;6.922;2022-08-19T14:21:56;7.77;;;6.90;;
2502;SDS011;1262;50.918;6.922;2022-08-19T14:24:24;8.97;;;7.30;;
2502;SDS011;1262;50.918;6.922;2022-08-19T14:26:54;7.83;;;7.13;;
2502;SDS011;1262;50.918;6.922;2022-08-19T14:29:26;7.50;;;6.77;;
2502;SDS011;1262;50.918;6.922;2022-08-19T14:32:03;8.80;;;7.43;;
2502;SDS011;1262;50.918;6.922;2022-08-19T14:34:32;7.40;;;6.60;;
2502;SDS011;1262;50.918;6.922;2022-08-19T14:37:05;7.00;;;6.40;;
2502;SDS011;1262;50.918;6.922;2022-08-19T14:39:37;8.27;;;7.50;;
2502;SDS011;1262;50.918;6.922;2022-08-19T14:42:06;7.47;;;6.50;;
2502;SDS011;1262;50.918;6.922;2022-08-19T14:44:37;7.70;;;6.47;;
2502;SDS011;1262;50.918;6.922;2022-08-19T14:47:07;6.60;;;5.90;;
2502;SDS011;1262;50.918;6.922;2022-08-19T14:49:41;6.97;;;6.20;;
2502;SDS011;1262;50.918;6.922;2022-08-19T14:52:09;6.80;;;5.37;;
2502;SDS011;1262;50.918;6.922;2022-08-19T14:54:37;5.87;;;5.30;;
2502;SDS011;1262;50.918;6.922;2022-08-19T14:57:05;6.17;;;4.73;;
2502;SDS011;1262;50.918;6.922;2022-08-19T14:59:35;5.10;;;4.60;;
2502;SDS011;1262;50.918;6.922;2022-08-19T15:02:05;4.83;;;4.43;;
2502;SDS011;1262;50.918;6.922;2022-08-19T15:04:32;6.20;;;4.90;;
2502;SDS011;1262;50.918;6.922;2022-08-19T15:06:59;5.37;;;4.87;;